sensor_id;sensor_type;location;lat;lon;timestamp;temperature;humidity
3860;DHT22;1945;52.036;8.614;2024-03-06T00:02:05;5.80;1.00
3860;DHT22;1945;52.036;8.614;2024-03-06T00:04:33;5.90;1.00
3860;DHT22;1945;52.036;8.614;2024-03-06T00:07:00;6.00;1.00
3860;DHT22;1945;52.036;8.614;2024-03-06T00:09:26;5.90;1.00
3860;DHT22;1945;52.036;8.614;2024-03-06T00:11:54;5.90;1.00
3860;DHT22;1945;52.036;8.614;2024-03-06T00:14:20;5.40;1.00
3860;DHT22;1945;52.036;8.614;2024-03-06T00:16:48;5.90;99.90
3860;DHT22;1945;52.036;8.614;2024-03-06T00:19:15;5.90;99.90
3860;DHT22;1945;52.036;8.614;2024-03-06T00:21:43;5.90;99.90
3860;DHT22;1945;52.036;8.614;2024-03-06T00:24:11;6.20;99.90
3860;DHT22;1945;52.036;8.614;2024-03-06T00:26:39;5.90;1.00
3860;DHT22;1945;52.036;8.614;2024-03-06T00:29:06;5.90;1.00
3860;DHT22;1945;52.036;8.614;2024-03-06T00:31:32;5.90;1.00
3860;DHT22;1945;52.036;8.614;2024-03-06T00:33:59;5.90;1.00
3860;DHT22;1945;52.036;8.614;2024-03-06T00:36:26;5.90;1.00
3860;DHT22;1945;52.036;8.614;2024-03-06T00:38:54;5.90;1.00
3860;DHT22;1945;52.036;8.614;2024-03-06T00:41:21;6.00;1.00
3860;DHT22;1945;52.036;8.614;2024-03-06T00:43:48;6.00;1.00
3860;DHT22;1945;52.036;8.614;2024-03-06T00:46:14;6.00;99.90
3860;DHT22;1945;52.036;8.614;2024-03-06T00:48:41;6.00;99.90
3860;DHT22;1945;52.036;8.614;2024-03-06T00:51:07;6.00;1.00
3860;DHT22;1945;52.036;8.614;2024-03-06T00:53:35;6.00;1.00
3860;DHT22;1945;52.036;8.614;2024-03-06T00:56:03;6.00;1.00
3860;DHT22;1945;52.036;8.614;2024-03-06T00:58:30;6.00;99.90
3860;DHT22;1945;52.036;8.614;2024-03-06T01:00:56;6.00;99.90
3860;DHT22;1945;52.036;8.614;2024-03-06T01:03:23;6.00;1.00
3860;DHT22;1945;52.036;8.614;2024-03-06T01:05:50;6.00;99.90
3860;DHT22;1945;52.036;8.614;2024-03-06T01:08:17;6.00;1.00
3860;DHT22;1945;52.036;8.614;2024-03-06T01:10:44;6.00;99.90
3860;DHT22;1945;52.036;8.614;2024-03-06T01:13:12;6.10;1.00
3860;DHT22;1945;52.036;8.614;2024-03-06T01:15:39;6.10;1.00
3860;DHT22;1945;52.036;8.614;2024-03-06T01:18:05;6.00;4.60
3860;DHT22;1945;52.036;8.614;2024-03-06T01:20:32;6.00;1.00
3860;DHT22;1945;52.036;8.614;2024-03-06T01:22:59;6.00;1.20
3860;DHT22;1945;52.036;8.614;2024-03-06T01:25:25;6.00;1.00
3860;DHT22;1945;52.036;8.614;2024-03-06T01:27:52;6.00;1.00
3860;DHT22;1945;52.036;8.614;2024-03-06T01:30:20;6.00;99.90
3860;DHT22;1945;52.036;8.614;2024-03-06T01:32:47;6.00;99.90
3860;DHT22;1945;52.036;8.614;2024-03-06T01:35:13;6.00;99.90
3860;DHT22;1945;52.036;8.614;2024-03-06T01:37:40;6.00;99.90
3860;DHT22;1945;52.036;8.614;2024-03-06T01:40:08;6.00;99.90
3860;DHT22;1945;52.036;8.614;2024-03-06T01:42:35;6.00;99.90
3860;DHT22;1945;52.036;8.614;2024-03-06T01:45:02;6.00;99.90
3860;DHT22;1945;52.036;8.614;2024-03-06T01:47:31;6.00;99.90
3860;DHT22;1945;52.036;8.614;2024-03-06T01:49:57;6.00;99.90
3860;DHT22;1945;52.036;8.614;2024-03-06T01:52:24;6.00;99.90
3860;DHT22;1945;52.036;8.614;2024-03-06T01:54:52;6.00;99.90
3860;DHT22;1945;52.036;8.614;2024-03-06T01:57:19;6.00;99.90
3860;DHT22;1945;52.036;8.614;2024-03-06T01:59:47;6.00;99.90
3860;DHT22;1945;52.036;8.614;2024-03-06T02:02:14;6.00;99.90
3860;DHT22;1945;52.036;8.614;2024-03-06T02:04:42;6.00;99.90
3860;DHT22;1945;52.036;8.614;2024-03-06T02:07:09;6.00;99.90
3860;DHT22;1945;52.036;8.614;2024-03-06T02:09:37;6.00;99.90
3860;DHT22;1945;52.036;8.614;2024-03-06T02:12:04;5.90;99.90
3860;DHT22;1945;52.036;8.614;2024-03-06T02:14:31;5.90;99.90
3860;DHT22;1945;52.036;8.614;2024-03-06T02:16:57;5.90;99.90
3860;DHT22;1945;52.036;8.614;2024-03-06T02:19:24;5.90;99.90
3860;DHT22;1945;52.036;8.614;2024-03-06T02:21:53;5.90;99.90
3860;DHT22;1945;52.036;8.614;2024-03-06T02:24:20;5.90;99.90
3860;DHT22;1945;52.036;8.614;2024-03-06T02:26:46;5.90;99.90
3860;DHT22;1945;52.036;8.614;2024-03-06T02:29:13;6.00;99.90
3860;DHT22;1945;52.036;8.614;2024-03-06T02:31:40;5.70;99.90
3860;DHT22;1945;52.036;8.614;2024-03-06T02:34:07;5.90;99.90
3860;DHT22;1945;52.036;8.614;2024-03-06T02:36:34;5.90;99.90
3860;DHT22;1945;52.036;8.614;2024-03-06T02:39:02;6.00;99.90
3860;DHT22;1945;52.036;8.614;2024-03-06T02:41:34;6.00;99.90
3860;DHT22;1945;52.036;8.614;2024-03-06T02:44:01;6.00;99.90
3860;DHT22;1945;52.036;8.614;2024-03-06T02:46:28;6.00;99.90
3860;DHT22;1945;52.036;8.614;2024-03-06T02:48:55;6.00;1.00
3860;DHT22;1945;52.036;8.614;2024-03-06T02:51:22;6.00;1.00
3860;DHT22;1945;52.036;8.614;2024-03-06T02:53:48;6.00;99.90
3860;DHT22;1945;52.036;8.614;2024-03-06T02:56:20;6.00;99.90
3860;DHT22;1945;52.036;8.614;2024-03-06T02:58:46;6.00;99.90
3860;DHT22;1945;52.036;8.614;2024-03-06T03:01:13;6.00;99.90
3860;DHT22;1945;52.036;8.614;2024-03-06T03:03:40;5.90;99.90
3860;DHT22;1945;52.036;8.614;2024-03-06T03:06:07;6.00;99.90
3860;DHT22;1945;52.036;8.614;2024-03-06T03:08:34;6.00;99.90
3860;DHT22;1945;52.036;8.614;2024-03-06T03:11:01;6.00;99.90
3860;DHT22;1945;52.036;8.614;2024-03-06T03:13:29;6.00;99.90
3860;DHT22;1945;52.036;8.614;2024-03-06T03:15:57;6.00;99.90
3860;DHT22;1945;52.036;8.614;2024-03-06T03:18:23;6.00;1.00
3860;DHT22;1945;52.036;8.614;2024-03-06T03:20:50;6.00;1.00
3860;DHT22;1945;52.036;8.614;2024-03-06T03:23:17;6.00;1.00
3860;DHT22;1945;52.036;8.614;2024-03-06T03:25:47;6.00;1.00
3860;DHT22;1945;52.036;8.614;2024-03-06T03:28:14;6.00;1.00
3860;DHT22;1945;52.036;8.614;2024-03-06T03:30:44;6.00;1.00
3860;DHT22;1945;52.036;8.614;2024-03-06T03:33:10;6.00;1.00
3860;DHT22;1945;52.036;8.614;2024-03-06T03:35:37;6.00;1.00
3860;DHT22;1945;52.036;8.614;2024-03-06T03:38:04;6.00;1.00
3860;DHT22;1945;52.036;8.614;2024-03-06T03:40:31;6.00;1.00
3860;DHT22;1945;52.036;8.614;2024-03-06T03:42:58;6.00;1.00
3860;DHT22;1945;52.036;8.614;2024-03-06T03:45:31;6.00;1.00
3860;DHT22;1945;52.036;8.614;2024-03-06T03:47:59;6.00;1.00
3860;DHT22;1945;52.036;8.614;2024-03-06T03:50:28;6.00;1.00
3860;DHT22;1945;52.036;8.614;2024-03-06T03:52:54;6.00;1.00
3860;DHT22;1945;52.036;8.614;2024-03-06T03:55:23;6.00;1.00
3860;DHT22;1945;52.036;8.614;2024-03-06T03:57:50;6.10;1.00
3860;DHT22;1945;52.036;8.614;2024-03-06T04:00:17;6.10;1.00
3860;DHT22;1945;52.036;8.614;2024-03-06T04:02:44;6.10;1.00
3860;DHT22;1945;52.036;8.614;2024-03-06T04:05:12;6.10;1.00
3860;DHT22;1945;52.036;8.614;2024-03-06T04:07:39;6.10;1.00
3860;DHT22;1945;52.036;8.614;2024-03-06T04:10:07;6.10;1.00
3860;DHT22;1945;52.036;8.614;2024-03-06T04:12:36;6.00;1.00
3860;DHT22;1945;52.036;8.614;2024-03-06T04:15:03;6.10;1.00
3860;DHT22;1945;52.036;8.614;2024-03-06T04:17:30;6.10;1.00
3860;DHT22;1945;52.036;8.614;2024-03-06T04:19:57;6.10;1.00
3860;DHT22;1945;52.036;8.614;2024-03-06T04:22:25;6.10;1.00
3860;DHT22;1945;52.036;8.614;2024-03-06T04:24:52;6.10;1.00
3860;DHT22;1945;52.036;8.614;2024-03-06T04:27:18;6.10;1.00
3860;DHT22;1945;52.036;8.614;2024-03-06T04:29:45;6.10;1.00
3860;DHT22;1945;52.036;8.614;2024-03-06T04:32:12;6.10;1.00
3860;DHT22;1945;52.036;8.614;2024-03-06T04:34:39;6.10;1.00
3860;DHT22;1945;52.036;8.614;2024-03-06T04:37:05;6.10;1.00
3860;DHT22;1945;52.036;8.614;2024-03-06T04:39:33;6.10;1.00
3860;DHT22;1945;52.036;8.614;2024-03-06T04:42:00;6.10;1.00
3860;DHT22;1945;52.036;8.614;2024-03-06T04:44:27;6.10;1.00
3860;DHT22;1945;52.036;8.614;2024-03-06T04:46:54;6.50;1.00
3860;DHT22;1945;52.036;8.614;2024-03-06T04:49:21;6.10;1.00
3860;DHT22;1945;52.036;8.614;2024-03-06T04:51:48;6.10;1.00
3860;DHT22;1945;52.036;8.614;2024-03-06T04:54:15;6.10;1.00
3860;DHT22;1945;52.036;8.614;2024-03-06T04:56:43;6.50;1.00
3860;DHT22;1945;52.036;8.614;2024-03-06T04:59:09;6.10;1.00
3860;DHT22;1945;52.036;8.614;2024-03-06T05:01:36;6.10;1.00
3860;DHT22;1945;52.036;8.614;2024-03-06T05:04:03;6.10;1.00
3860;DHT22;1945;52.036;8.614;2024-03-06T05:06:29;6.10;1.00
3860;DHT22;1945;52.036;8.614;2024-03-06T05:08:56;6.10;1.00
3860;DHT22;1945;52.036;8.614;2024-03-06T05:11:23;6.10;1.00
3860;DHT22;1945;52.036;8.614;2024-03-06T05:13:51;6.10;1.00
3860;DHT22;1945;52.036;8.614;2024-03-06T05:16:17;6.10;1.00
3860;DHT22;1945;52.036;8.614;2024-03-06T05:18:44;6.10;1.00
3860;DHT22;1945;52.036;8.614;2024-03-06T05:21:11;6.00;1.00
3860;DHT22;1945;52.036;8.614;2024-03-06T05:23:38;6.00;1.00
3860;DHT22;1945;52.036;8.614;2024-03-06T05:26:04;6.50;1.00
3860;DHT22;1945;52.036;8.614;2024-03-06T05:28:31;6.00;1.00
3860;DHT22;1945;52.036;8.614;2024-03-06T05:30:59;6.00;1.00
3860;DHT22;1945;52.036;8.614;2024-03-06T05:33:27;6.00;1.00
3860;DHT22;1945;52.036;8.614;2024-03-06T05:35:55;6.00;1.00
3860;DHT22;1945;52.036;8.614;2024-03-06T05:38:22;6.00;1.00
3860;DHT22;1945;52.036;8.614;2024-03-06T05:40:48;6.00;1.00
3860;DHT22;1945;52.036;8.614;2024-03-06T05:43:15;6.00;1.00
3860;DHT22;1945;52.036;8.614;2024-03-06T05:45:42;5.90;1.00
3860;DHT22;1945;52.036;8.614;2024-03-06T05:48:10;5.90;1.00
3860;DHT22;1945;52.036;8.614;2024-03-06T05:50:36;5.90;1.00
3860;DHT22;1945;52.036;8.614;2024-03-06T05:53:04;5.90;1.00
3860;DHT22;1945;52.036;8.614;2024-03-06T05:55:31;5.90;1.00
3860;DHT22;1945;52.036;8.614;2024-03-06T05:57:57;5.90;1.00
3860;DHT22;1945;52.036;8.614;2024-03-06T06:00:25;5.90;1.00
3860;DHT22;1945;52.036;8.614;2024-03-06T06:02:51;5.90;1.00
3860;DHT22;1945;52.036;8.614;2024-03-06T06:05:19;5.90;1.00
3860;DHT22;1945;52.036;8.614;2024-03-06T06:07:48;6.00;1.00
3860;DHT22;1945;52.036;8.614;2024-03-06T06:10:15;6.00;1.00
3860;DHT22;1945;52.036;8.614;2024-03-06T06:12:42;6.00;1.00
3860;DHT22;1945;52.036;8.614;2024-03-06T06:15:09;6.00;1.00
3860;DHT22;1945;52.036;8.614;2024-03-06T06:17:36;6.00;1.00
3860;DHT22;1945;52.036;8.614;2024-03-06T06:20:06;6.00;1.00
3860;DHT22;1945;52.036;8.614;2024-03-06T06:22:36;6.00;1.00
3860;DHT22;1945;52.036;8.614;2024-03-06T06:25:03;6.00;1.00
3860;DHT22;1945;52.036;8.614;2024-03-06T06:27:30;6.00;1.00
3860;DHT22;1945;52.036;8.614;2024-03-06T06:29:57;6.00;1.00
3860;DHT22;1945;52.036;8.614;2024-03-06T06:32:24;6.00;1.00
3860;DHT22;1945;52.036;8.614;2024-03-06T06:34:51;6.10;1.00
3860;DHT22;1945;52.036;8.614;2024-03-06T06:37:18;6.10;1.00
3860;DHT22;1945;52.036;8.614;2024-03-06T06:39:46;6.10;1.00
3860;DHT22;1945;52.036;8.614;2024-03-06T06:42:13;6.10;1.00
3860;DHT22;1945;52.036;8.614;2024-03-06T06:44:40;6.10;1.00
3860;DHT22;1945;52.036;8.614;2024-03-06T06:47:07;6.10;1.00
3860;DHT22;1945;52.036;8.614;2024-03-06T06:49:34;6.10;1.00
3860;DHT22;1945;52.036;8.614;2024-03-06T06:52:00;6.20;1.00
3860;DHT22;1945;52.036;8.614;2024-03-06T06:54:27;6.20;1.00
3860;DHT22;1945;52.036;8.614;2024-03-06T06:56:55;6.20;1.00
3860;DHT22;1945;52.036;8.614;2024-03-06T06:59:21;6.30;1.00
3860;DHT22;1945;52.036;8.614;2024-03-06T07:01:48;6.30;1.00
3860;DHT22;1945;52.036;8.614;2024-03-06T07:04:15;6.30;1.00
3860;DHT22;1945;52.036;8.614;2024-03-06T07:06:45;6.30;1.00
3860;DHT22;1945;52.036;8.614;2024-03-06T07:09:12;6.50;1.00
3860;DHT22;1945;52.036;8.614;2024-03-06T07:11:41;6.30;1.00
3860;DHT22;1945;52.036;8.614;2024-03-06T07:14:09;6.30;1.00
3860;DHT22;1945;52.036;8.614;2024-03-06T07:16:41;6.30;1.00
3860;DHT22;1945;52.036;8.614;2024-03-06T07:19:08;6.40;1.00
3860;DHT22;1945;52.036;8.614;2024-03-06T07:21:35;6.30;1.00
3860;DHT22;1945;52.036;8.614;2024-03-06T07:24:01;6.40;1.00
3860;DHT22;1945;52.036;8.614;2024-03-06T07:26:28;6.40;1.00
3860;DHT22;1945;52.036;8.614;2024-03-06T07:28:55;6.40;1.00
3860;DHT22;1945;52.036;8.614;2024-03-06T07:31:25;6.40;1.00
3860;DHT22;1945;52.036;8.614;2024-03-06T07:33:52;6.30;1.00
3860;DHT22;1945;52.036;8.614;2024-03-06T07:36:19;6.50;1.00
3860;DHT22;1945;52.036;8.614;2024-03-06T07:38:46;6.50;1.00
3860;DHT22;1945;52.036;8.614;2024-03-06T07:41:13;6.50;1.00
3860;DHT22;1945;52.036;8.614;2024-03-06T07:43:39;6.50;1.00
3860;DHT22;1945;52.036;8.614;2024-03-06T07:46:06;6.60;1.00
3860;DHT22;1945;52.036;8.614;2024-03-06T07:48:37;6.60;1.00
3860;DHT22;1945;52.036;8.614;2024-03-06T07:51:04;6.60;1.00
3860;DHT22;1945;52.036;8.614;2024-03-06T07:53:31;6.60;99.90
3860;DHT22;1945;52.036;8.614;2024-03-06T07:55:57;7.00;1.00
3860;DHT22;1945;52.036;8.614;2024-03-06T07:58:24;6.70;1.00
3860;DHT22;1945;52.036;8.614;2024-03-06T08:00:52;6.70;99.90
3860;DHT22;1945;52.036;8.614;2024-03-06T08:03:21;6.70;99.90
3860;DHT22;1945;52.036;8.614;2024-03-06T08:05:51;6.80;99.90
3860;DHT22;1945;52.036;8.614;2024-03-06T08:08:17;6.80;99.90
3860;DHT22;1945;52.036;8.614;2024-03-06T08:10:44;6.70;99.90
3860;DHT22;1945;52.036;8.614;2024-03-06T08:13:11;6.80;99.90
3860;DHT22;1945;52.036;8.614;2024-03-06T08:15:38;6.80;99.90
3860;DHT22;1945;52.036;8.614;2024-03-06T08:18:06;6.70;99.90
3860;DHT22;1945;52.036;8.614;2024-03-06T08:20:32;6.80;99.90
3860;DHT22;1945;52.036;8.614;2024-03-06T08:23:00;6.70;99.90
3860;DHT22;1945;52.036;8.614;2024-03-06T08:25:27;6.80;99.90
3860;DHT22;1945;52.036;8.614;2024-03-06T08:27:54;6.80;99.90
3860;DHT22;1945;52.036;8.614;2024-03-06T08:30:20;6.80;99.90
3860;DHT22;1945;52.036;8.614;2024-03-06T08:32:47;6.80;99.90
3860;DHT22;1945;52.036;8.614;2024-03-06T08:35:15;6.80;99.90
3860;DHT22;1945;52.036;8.614;2024-03-06T08:37:44;6.80;99.90
3860;DHT22;1945;52.036;8.614;2024-03-06T08:40:12;6.80;99.90
3860;DHT22;1945;52.036;8.614;2024-03-06T08:42:40;6.90;99.90
3860;DHT22;1945;52.036;8.614;2024-03-06T08:45:08;6.90;99.90
3860;DHT22;1945;52.036;8.614;2024-03-06T08:47:35;6.90;99.90
3860;DHT22;1945;52.036;8.614;2024-03-06T08:50:02;6.90;99.90
3860;DHT22;1945;52.036;8.614;2024-03-06T08:52:29;6.90;99.90
3860;DHT22;1945;52.036;8.614;2024-03-06T08:54:56;7.00;99.90
3860;DHT22;1945;52.036;8.614;2024-03-06T08:57:24;6.90;99.90
3860;DHT22;1945;52.036;8.614;2024-03-06T08:59:53;7.00;99.90
3860;DHT22;1945;52.036;8.614;2024-03-06T09:02:20;7.00;99.90
3860;DHT22;1945;52.036;8.614;2024-03-06T09:04:46;7.00;99.90
3860;DHT22;1945;52.036;8.614;2024-03-06T09:07:13;7.00;99.90
3860;DHT22;1945;52.036;8.614;2024-03-06T09:09:40;7.30;99.90
3860;DHT22;1945;52.036;8.614;2024-03-06T09:12:08;7.10;99.90
3860;DHT22;1945;52.036;8.614;2024-03-06T09:14:37;7.10;99.90
3860;DHT22;1945;52.036;8.614;2024-03-06T09:17:04;7.10;99.90
3860;DHT22;1945;52.036;8.614;2024-03-06T09:19:32;7.10;99.90
3860;DHT22;1945;52.036;8.614;2024-03-06T09:21:59;7.20;99.90
3860;DHT22;1945;52.036;8.614;2024-03-06T09:24:25;7.10;99.90
3860;DHT22;1945;52.036;8.614;2024-03-06T09:26:53;7.20;99.90
3860;DHT22;1945;52.036;8.614;2024-03-06T09:29:20;7.20;99.90
3860;DHT22;1945;52.036;8.614;2024-03-06T09:31:48;7.30;99.90
3860;DHT22;1945;52.036;8.614;2024-03-06T09:34:16;7.40;99.90
3860;DHT22;1945;52.036;8.614;2024-03-06T09:36:46;7.40;99.90
3860;DHT22;1945;52.036;8.614;2024-03-06T09:39:13;7.60;99.90
3860;DHT22;1945;52.036;8.614;2024-03-06T09:41:41;7.60;99.90
3860;DHT22;1945;52.036;8.614;2024-03-06T09:44:09;7.60;99.90
3860;DHT22;1945;52.036;8.614;2024-03-06T09:46:36;7.60;99.90
3860;DHT22;1945;52.036;8.614;2024-03-06T09:49:04;7.60;99.90
3860;DHT22;1945;52.036;8.614;2024-03-06T09:51:31;7.60;99.90
3860;DHT22;1945;52.036;8.614;2024-03-06T09:53:59;7.60;99.90
3860;DHT22;1945;52.036;8.614;2024-03-06T09:56:25;7.70;99.90
3860;DHT22;1945;52.036;8.614;2024-03-06T09:58:52;7.70;99.90
3860;DHT22;1945;52.036;8.614;2024-03-06T10:01:19;7.80;93.90
3860;DHT22;1945;52.036;8.614;2024-03-06T10:03:47;7.80;99.90
3860;DHT22;1945;52.036;8.614;2024-03-06T10:06:15;7.80;25.80
3860;DHT22;1945;52.036;8.614;2024-03-06T10:08:42;7.80;10.70
3860;DHT22;1945;52.036;8.614;2024-03-06T10:11:10;7.80;1.00
3860;DHT22;1945;52.036;8.614;2024-03-06T10:13:37;7.80;1.00
3860;DHT22;1945;52.036;8.614;2024-03-06T10:16:05;7.70;1.00
3860;DHT22;1945;52.036;8.614;2024-03-06T10:18:34;7.70;1.00
3860;DHT22;1945;52.036;8.614;2024-03-06T10:21:00;7.70;1.00
3860;DHT22;1945;52.036;8.614;2024-03-06T10:23:29;7.80;1.00
3860;DHT22;1945;52.036;8.614;2024-03-06T10:25:55;7.90;1.00
3860;DHT22;1945;52.036;8.614;2024-03-06T10:28:23;7.90;1.00
3860;DHT22;1945;52.036;8.614;2024-03-06T10:30:50;8.00;1.00
3860;DHT22;1945;52.036;8.614;2024-03-06T10:33:18;8.00;1.00
3860;DHT22;1945;52.036;8.614;2024-03-06T10:35:46;8.10;1.00
3860;DHT22;1945;52.036;8.614;2024-03-06T10:38:14;8.10;1.00
3860;DHT22;1945;52.036;8.614;2024-03-06T10:40:43;7.90;1.00
3860;DHT22;1945;52.036;8.614;2024-03-06T10:43:11;8.10;99.90
3860;DHT22;1945;52.036;8.614;2024-03-06T10:45:46;8.10;99.90
3860;DHT22;1945;52.036;8.614;2024-03-06T10:48:13;8.10;99.90
3860;DHT22;1945;52.036;8.614;2024-03-06T10:50:41;8.00;99.90
3860;DHT22;1945;52.036;8.614;2024-03-06T10:53:10;8.00;99.90
3860;DHT22;1945;52.036;8.614;2024-03-06T10:55:37;8.00;99.90
3860;DHT22;1945;52.036;8.614;2024-03-06T10:58:07;8.00;99.90
3860;DHT22;1945;52.036;8.614;2024-03-06T11:00:36;8.30;99.90
3860;DHT22;1945;52.036;8.614;2024-03-06T11:03:05;8.00;99.90
3860;DHT22;1945;52.036;8.614;2024-03-06T11:05:35;8.00;99.90
3860;DHT22;1945;52.036;8.614;2024-03-06T11:08:02;8.00;99.90
3860;DHT22;1945;52.036;8.614;2024-03-06T11:10:30;8.10;99.90
3860;DHT22;1945;52.036;8.614;2024-03-06T11:12:57;8.00;99.90
3860;DHT22;1945;52.036;8.614;2024-03-06T11:15:25;8.00;99.90
3860;DHT22;1945;52.036;8.614;2024-03-06T11:17:52;8.10;99.90
3860;DHT22;1945;52.036;8.614;2024-03-06T11:20:21;8.10;99.90
3860;DHT22;1945;52.036;8.614;2024-03-06T11:23:04;8.10;99.90
3860;DHT22;1945;52.036;8.614;2024-03-06T11:25:56;8.10;99.90
3860;DHT22;1945;52.036;8.614;2024-03-06T11:28:25;8.10;90.30
3860;DHT22;1945;52.036;8.614;2024-03-06T11:30:56;8.10;59.90
3860;DHT22;1945;52.036;8.614;2024-03-06T11:33:28;8.10;98.30
3860;DHT22;1945;52.036;8.614;2024-03-06T11:36:19;8.20;94.40
3860;DHT22;1945;52.036;8.614;2024-03-06T11:38:52;8.10;58.80
3860;DHT22;1945;52.036;8.614;2024-03-06T11:41:21;8.20;95.50
3860;DHT22;1945;52.036;8.614;2024-03-06T11:43:48;8.20;26.80
3860;DHT22;1945;52.036;8.614;2024-03-06T11:46:17;8.30;1.00
3860;DHT22;1945;52.036;8.614;2024-03-06T11:48:51;8.20;1.00
3860;DHT22;1945;52.036;8.614;2024-03-06T11:51:18;8.30;1.00
3860;DHT22;1945;52.036;8.614;2024-03-06T11:53:45;8.40;1.00
3860;DHT22;1945;52.036;8.614;2024-03-06T11:56:13;8.50;99.90
3860;DHT22;1945;52.036;8.614;2024-03-06T11:58:39;8.50;85.40
3860;DHT22;1945;52.036;8.614;2024-03-06T12:01:06;8.60;99.90
3860;DHT22;1945;52.036;8.614;2024-03-06T12:03:34;8.60;99.90
3860;DHT22;1945;52.036;8.614;2024-03-06T12:06:01;8.60;99.90
3860;DHT22;1945;52.036;8.614;2024-03-06T12:08:28;8.70;1.00
3860;DHT22;1945;52.036;8.614;2024-03-06T12:10:55;8.70;25.80
3860;DHT22;1945;52.036;8.614;2024-03-06T12:13:23;8.70;99.90
3860;DHT22;1945;52.036;8.614;2024-03-06T12:15:50;8.70;99.90
3860;DHT22;1945;52.036;8.614;2024-03-06T12:18:17;8.80;99.90
3860;DHT22;1945;52.036;8.614;2024-03-06T12:20:45;8.50;99.90
3860;DHT22;1945;52.036;8.614;2024-03-06T12:23:19;8.70;99.90
3860;DHT22;1945;52.036;8.614;2024-03-06T12:25:47;8.70;99.90
3860;DHT22;1945;52.036;8.614;2024-03-06T12:28:14;8.70;99.90
3860;DHT22;1945;52.036;8.614;2024-03-06T12:30:43;8.70;99.90
3860;DHT22;1945;52.036;8.614;2024-03-06T12:33:10;8.50;99.90
3860;DHT22;1945;52.036;8.614;2024-03-06T12:35:40;8.70;84.90
3860;DHT22;1945;52.036;8.614;2024-03-06T12:38:13;8.70;31.70
3860;DHT22;1945;52.036;8.614;2024-03-06T12:40:40;8.80;92.90
3860;DHT22;1945;52.036;8.614;2024-03-06T12:43:07;8.80;83.30
3860;DHT22;1945;52.036;8.614;2024-03-06T12:45:34;8.90;41.90
3860;DHT22;1945;52.036;8.614;2024-03-06T12:48:01;9.00;53.10
3860;DHT22;1945;52.036;8.614;2024-03-06T12:50:30;9.00;20.80
3860;DHT22;1945;52.036;8.614;2024-03-06T12:52:56;9.10;1.00
3860;DHT22;1945;52.036;8.614;2024-03-06T12:55:24;9.10;1.00
3860;DHT22;1945;52.036;8.614;2024-03-06T12:57:51;9.10;1.00
3860;DHT22;1945;52.036;8.614;2024-03-06T13:00:19;9.20;1.00
3860;DHT22;1945;52.036;8.614;2024-03-06T13:02:46;9.20;1.00
3860;DHT22;1945;52.036;8.614;2024-03-06T13:05:12;9.30;1.00
3860;DHT22;1945;52.036;8.614;2024-03-06T13:07:39;9.30;1.00
3860;DHT22;1945;52.036;8.614;2024-03-06T13:10:08;9.30;1.00
3860;DHT22;1945;52.036;8.614;2024-03-06T13:12:37;9.40;1.00
3860;DHT22;1945;52.036;8.614;2024-03-06T13:15:04;9.50;1.00
3860;DHT22;1945;52.036;8.614;2024-03-06T13:17:32;9.50;1.00
3860;DHT22;1945;52.036;8.614;2024-03-06T13:19:59;9.60;1.00
3860;DHT22;1945;52.036;8.614;2024-03-06T13:22:26;9.60;1.00
3860;DHT22;1945;52.036;8.614;2024-03-06T13:24:53;9.60;1.00
3860;DHT22;1945;52.036;8.614;2024-03-06T13:27:19;9.90;1.00
3860;DHT22;1945;52.036;8.614;2024-03-06T13:29:47;9.50;1.00
3860;DHT22;1945;52.036;8.614;2024-03-06T13:32:14;9.60;1.00
3860;DHT22;1945;52.036;8.614;2024-03-06T13:34:42;9.70;1.00
3860;DHT22;1945;52.036;8.614;2024-03-06T13:37:09;9.70;1.00
3860;DHT22;1945;52.036;8.614;2024-03-06T13:39:36;9.70;1.00
3860;DHT22;1945;52.036;8.614;2024-03-06T13:42:04;9.80;1.00
3860;DHT22;1945;52.036;8.614;2024-03-06T13:44:33;9.80;1.00
3860;DHT22;1945;52.036;8.614;2024-03-06T13:47:01;9.80;1.00
3860;DHT22;1945;52.036;8.614;2024-03-06T13:49:36;9.80;1.00
3860;DHT22;1945;52.036;8.614;2024-03-06T13:52:03;9.80;1.00
3860;DHT22;1945;52.036;8.614;2024-03-06T13:54:32;9.80;1.00
3860;DHT22;1945;52.036;8.614;2024-03-06T13:56:59;9.90;1.00
3860;DHT22;1945;52.036;8.614;2024-03-06T13:59:28;10.00;1.00
3860;DHT22;1945;52.036;8.614;2024-03-06T14:01:55;10.00;1.00
3860;DHT22;1945;52.036;8.614;2024-03-06T14:04:23;10.00;1.00
3860;DHT22;1945;52.036;8.614;2024-03-06T14:06:50;10.00;1.00
3860;DHT22;1945;52.036;8.614;2024-03-06T14:09:17;10.00;1.00
3860;DHT22;1945;52.036;8.614;2024-03-06T14:11:44;10.00;1.00
3860;DHT22;1945;52.036;8.614;2024-03-06T14:14:11;9.90;1.00
3860;DHT22;1945;52.036;8.614;2024-03-06T14:16:39;9.90;1.00
3860;DHT22;1945;52.036;8.614;2024-03-06T14:19:06;9.80;1.00
3860;DHT22;1945;52.036;8.614;2024-03-06T14:21:35;9.80;1.00
3860;DHT22;1945;52.036;8.614;2024-03-06T14:24:01;9.80;1.00
3860;DHT22;1945;52.036;8.614;2024-03-06T14:26:29;9.80;1.00
3860;DHT22;1945;52.036;8.614;2024-03-06T14:28:56;9.80;1.00
3860;DHT22;1945;52.036;8.614;2024-03-06T14:31:23;9.90;1.00
3860;DHT22;1945;52.036;8.614;2024-03-06T14:33:49;10.00;1.00
3860;DHT22;1945;52.036;8.614;2024-03-06T14:36:16;9.90;1.00
3860;DHT22;1945;52.036;8.614;2024-03-06T14:38:44;9.80;1.00
3860;DHT22;1945;52.036;8.614;2024-03-06T14:41:12;9.80;1.00
3860;DHT22;1945;52.036;8.614;2024-03-06T14:43:38;9.80;1.00
3860;DHT22;1945;52.036;8.614;2024-03-06T14:46:05;9.70;1.00
3860;DHT22;1945;52.036;8.614;2024-03-06T14:48:32;9.70;1.00
3860;DHT22;1945;52.036;8.614;2024-03-06T14:50:59;9.70;1.00
3860;DHT22;1945;52.036;8.614;2024-03-06T14:53:26;9.60;1.00
3860;DHT22;1945;52.036;8.614;2024-03-06T14:55:54;9.60;1.00
3860;DHT22;1945;52.036;8.614;2024-03-06T14:58:21;9.60;1.00
3860;DHT22;1945;52.036;8.614;2024-03-06T15:00:48;9.70;1.00
3860;DHT22;1945;52.036;8.614;2024-03-06T15:03:16;9.60;1.00
3860;DHT22;1945;52.036;8.614;2024-03-06T15:05:43;9.70;1.00
3860;DHT22;1945;52.036;8.614;2024-03-06T15:08:10;9.60;1.00
3860;DHT22;1945;52.036;8.614;2024-03-06T15:10:36;9.70;1.00
3860;DHT22;1945;52.036;8.614;2024-03-06T15:13:04;9.70;1.00
3860;DHT22;1945;52.036;8.614;2024-03-06T15:15:31;9.80;1.00
3860;DHT22;1945;52.036;8.614;2024-03-06T15:17:58;9.60;1.00
3860;DHT22;1945;52.036;8.614;2024-03-06T15:20:25;9.50;1.00
3860;DHT22;1945;52.036;8.614;2024-03-06T15:22:53;9.50;1.00
3860;DHT22;1945;52.036;8.614;2024-03-06T15:25:19;9.40;1.00
3860;DHT22;1945;52.036;8.614;2024-03-06T15:27:46;9.40;1.00
3860;DHT22;1945;52.036;8.614;2024-03-06T15:30:14;9.40;1.00
3860;DHT22;1945;52.036;8.614;2024-03-06T15:32:42;9.50;1.00
3860;DHT22;1945;52.036;8.614;2024-03-06T15:35:08;9.50;1.00
3860;DHT22;1945;52.036;8.614;2024-03-06T15:37:37;9.50;1.00
3860;DHT22;1945;52.036;8.614;2024-03-06T15:40:04;9.40;1.00
3860;DHT22;1945;52.036;8.614;2024-03-06T15:42:32;9.40;1.00
3860;DHT22;1945;52.036;8.614;2024-03-06T15:44:59;9.40;1.00
3860;DHT22;1945;52.036;8.614;2024-03-06T15:47:27;9.40;1.00
3860;DHT22;1945;52.036;8.614;2024-03-06T15:49:54;9.40;1.00
3860;DHT22;1945;52.036;8.614;2024-03-06T15:52:21;9.30;1.00
3860;DHT22;1945;52.036;8.614;2024-03-06T15:54:47;9.30;1.00
3860;DHT22;1945;52.036;8.614;2024-03-06T15:57:14;9.30;1.00
3860;DHT22;1945;52.036;8.614;2024-03-06T15:59:43;9.20;1.00
3860;DHT22;1945;52.036;8.614;2024-03-06T16:02:10;9.20;1.00
3860;DHT22;1945;52.036;8.614;2024-03-06T16:04:38;9.20;1.00
3860;DHT22;1945;52.036;8.614;2024-03-06T16:07:05;9.20;1.00
3860;DHT22;1945;52.036;8.614;2024-03-06T16:09:32;9.20;1.00
3860;DHT22;1945;52.036;8.614;2024-03-06T16:11:59;9.20;1.00
3860;DHT22;1945;52.036;8.614;2024-03-06T16:14:25;9.10;1.00
3860;DHT22;1945;52.036;8.614;2024-03-06T16:16:52;9.10;99.90
3860;DHT22;1945;52.036;8.614;2024-03-06T16:19:19;9.00;99.90
3860;DHT22;1945;52.036;8.614;2024-03-06T16:21:47;9.00;1.00
3860;DHT22;1945;52.036;8.614;2024-03-06T16:24:14;9.00;1.00
3860;DHT22;1945;52.036;8.614;2024-03-06T16:26:41;8.90;1.00
3860;DHT22;1945;52.036;8.614;2024-03-06T16:29:08;8.90;1.00